Latest Weather Observations for Orbost

IDV60801

Issued at 12:05 pm EST Saturday 20 September 2014 (issued every 30 minutes, with the page automatically refreshed every 10 minutes)

About weather observations | Map of weather stations | Latest weather observations for VIC | Other Formats
Station Details ID: 084145 Name: ORBOST Lat: -37.69 Lon: 148.47 Height: 62.65 m
Data from the previous 72 hours. | See also: Recent months at Orbost
Date/Time
EST
Temp
°C
App
Temp
°C
Dew
Point
Rel
Hum
%
Delta-T
°C
Wind Press
QNH
hPa
Press
MSL
hPa
Rain
since 9 am
mm
Dir
 
Spd
km/h
Gust
km/h
Spd
kts
Gust
kts
20/12:00pm 14.5 12.1 8.7 68 2.9 W 11 17 6 9 1026.3 1026.3 0.0
20/11:30am 12.9 9.6 8.0 72 2.4 WSW 15 30 8 16 1026.6 1026.6 0.0
20/11:00am 12.6 10.5 8.1 74 2.2 W 9 17 5 9 1026.7 1026.7 0.0
20/10:30am 12.4 8.7 8.1 75 2.1 W 17 24 9 13 1026.8 1026.8 0.0
20/10:00am 12.4 9.1 7.9 74 2.2 W 15 26 8 14 1026.8 1026.8 0.0
20/09:30am 11.5 8.5 7.6 77 1.9 W 13 20 7 11 1026.8 1026.8 0.0
20/09:00am 12.2 9.1 7.3 72 2.4 W 13 19 7 10 1026.5 1026.5 0.0
20/08:30am 11.9 8.7 7.0 72 2.3 WNW 13 24 7 13 1026.2 1026.2 0.0
20/08:00am 11.0 7.7 6.6 74 2.1 WNW 13 22 7 12 1026.0 1026.0 0.0
20/07:30am 10.6 7.7 6.4 75 2.0 WNW 11 17 6 9 1025.9 1025.9 0.0
20/07:00am 10.2 7.6 6.2 76 1.9 WNW 9 15 5 8 1025.7 1025.7 0.0
20/06:30am 9.9 6.9 5.9 76 1.8 NW 11 17 6 9 1025.3 1025.3 0.0
20/06:00am 9.6 7.0 6.0 78 1.7 NW 9 15 5 8 1025.0 1025.0 0.0
20/05:30am 9.7 7.1 6.1 78 1.7 NW 9 11 5 6 1024.7 1024.7 0.0
20/05:00am 9.4 6.7 5.8 78 1.6 NW 9 19 5 10 1024.3 1024.3 0.0
20/04:30am 9.7 6.7 6.1 78 1.7 WNW 11 19 6 10 1023.9 1023.9 0.0
20/04:00am 9.7 7.1 6.1 78 1.7 WNW 9 19 5 10 1023.7 1023.8 0.0
20/03:30am 9.6 7.0 6.1 79 1.6 NW 9 15 5 8 1023.7 1023.8 0.0
20/03:00am 9.4 7.2 6.1 80 1.5 NW 7 11 4 6 1023.5 1023.6 0.0
20/02:30am 8.7 6.4 5.8 82 1.3 NW 7 11 4 6 1023.5 1023.6 0.0
20/02:00am 9.6 6.2 6.1 79 1.6 NW 13 22 7 12 1023.5 1023.6 0.0
20/01:30am 9.4 6.4 6.1 80 1.5 NW 11 19 6 10 1023.7 1023.8 0.0
20/01:00am 8.8 6.1 5.7 81 1.4 WNW 9 15 5 8 1023.9 1023.9 0.0
20/12:30am 9.2 6.2 5.8 79 1.6 WNW 11 17 6 9 1023.6 1023.7 0.0
20/12:00am 9.5 6.9 5.9 78 1.6 WNW 9 15 5 8 1023.5 1023.6 0.0
 
Date/Time
EST
Temp
°C
App
Temp
°C
Dew
Point
Rel
Hum
%
Delta-T
°C
Wind Press
QNH
hPa
Press
MSL
hPa
Rain
since 9 am
mm
Dir
 
Spd
km/h
Gust
km/h
Spd
kts
Gust
kts
19/11:30pm 9.5 6.8 5.7 77 1.7 NW 9 15 5 8 1023.5 1023.6 0.0
19/11:00pm 9.6 6.9 5.8 77 1.7 NW 9 15 5 8 1023.5 1023.6 0.0
19/10:30pm 9.6 6.9 5.8 77 1.7 WNW 9 15 5 8 1023.7 1023.8 0.0
19/10:00pm 9.9 7.3 6.1 77 1.8 WNW 9 17 5 9 1023.6 1023.7 0.0
19/09:30pm 9.8 7.2 6.0 77 1.8 WNW 9 13 5 7 1023.5 1023.6 0.0
19/09:00pm 10.1 7.5 6.3 77 1.8 WNW 9 15 5 8 1023.4 1023.5 0.0
19/08:30pm 10.5 8.0 6.6 77 1.8 W 9 15 5 8 1023.2 1023.3 0.0
19/08:00pm 10.5 9.1 7.4 81 1.5 WNW 4 6 2 3 1023.0 1023.1 0.0
19/07:30pm 11.5 9.7 7.8 78 1.8 W 7 13 4 7 1022.7 1022.8 0.0
19/07:00pm 12.0 9.4 7.7 75 2.1 WSW 11 20 6 11 1022.5 1022.6 0.0
19/06:30pm 11.6 9.3 7.3 75 2.1 WSW 9 15 5 8 1022.2 1022.3 0.0
19/06:00pm 12.2 9.2 7.7 74 2.2 WSW 13 20 7 11 1022.0 1022.1 0.0
19/05:30pm 12.5 9.1 7.8 73 2.3 SW 15 22 8 12 1021.7 1021.8 0.0
19/05:00pm 12.9 10.1 8.4 74 2.2 SW 13 22 7 12 1021.4 1021.4 0.0
19/04:30pm 13.3 10.4 8.2 71 2.5 SW 13 20 7 11 1021.1 1021.1 0.0
19/04:00pm 13.7 9.7 8.1 69 2.8 SW 19 26 10 14 1021.0 1021.0 0.0
19/03:30pm 15.2 11.1 7.7 61 3.7 WSW 19 26 10 14 1020.8 1020.8 0.0
19/03:00pm 14.7 10.7 8.4 66 3.2 WSW 19 30 10 16 1020.8 1020.8 0.0
19/02:30pm 15.0 11.3 7.8 62 3.6 SW 17 22 9 12 1020.9 1020.9 0.0
19/02:00pm 14.8 10.4 6.6 58 4.0 W 19 26 10 14 1021.1 1021.1 0.0
19/01:30pm 13.5 8.5 6.4 62 3.4 W 22 30 12 16 1021.4 1021.4 0.0
19/01:00pm 14.1 10.3 7.4 64 3.3 W 17 26 9 14 1021.8 1021.9 0.0
19/12:30pm 13.3 8.8 6.9 65 3.1 W 20 30 11 16 1022.1 1022.2 0.0
19/12:00pm 13.3 8.7 6.4 63 3.3 W 20 35 11 19 1022.1 1022.2 0.0
19/11:30am 13.4 9.3 6.3 62 3.4 W 17 30 9 16 1022.3 1022.4 0.0
19/11:00am 13.5 9.8 6.4 62 3.4 W 15 28 8 15 1022.4 1022.5 0.0
19/10:30am 12.6 8.5 6.2 65 3.0 W 17 30 9 16 1022.6 1022.7 0.0
19/10:00am 13.3 9.2 6.4 63 3.3 W 17 26 9 14 1022.6 1022.7 0.0
19/09:30am 12.2 8.5 6.5 68 2.7 WNW 15 30 8 16 1022.6 1022.7 0.0
19/09:00am 11.3 7.9 6.0 70 2.5 WNW 13 22 7 12 1022.7 1022.8 0.4
19/08:30am 10.7 6.3 4.8 67 2.7 WNW 17 26 9 14 1022.7 1022.8 0.4
19/08:00am 10.3 5.8 4.2 66 2.7 WNW 17 26 9 14 1022.5 1022.6 0.4
19/07:30am 9.8 6.1 4.2 68 2.5 W 13 26 7 14 1022.3 1022.4 0.4
19/07:00am 9.7 5.1 3.7 66 2.6 W 17 28 9 15 1022.2 1022.3 0.4
19/06:30am 8.4 4.7 2.4 66 2.5 WNW 11 19 6 10 1022.1 1022.2 0.4
19/06:00am 8.3 4.6 2.3 66 2.5 WNW 11 19 6 10 1021.8 1021.9 0.4
19/05:30am 8.4 4.7 2.6 67 2.4 WNW 11 17 6 9 1021.8 1021.9 0.4
19/05:00am 8.4 4.4 2.8 68 2.4 WNW 13 20 7 11 1021.5 1021.5 0.4
19/04:30am 8.5 4.5 3.1 69 2.3 NW 13 22 7 12 1021.4 1021.4 0.4
19/04:00am 8.1 4.9 3.2 71 2.1 NW 9 15 5 8 1021.4 1021.4 0.4
19/03:30am 8.3 4.4 3.4 71 2.1 WNW 13 19 7 10 1021.3 1021.3 0.4
19/03:00am 7.7 4.1 3.2 73 1.9 NW 11 17 6 9 1021.4 1021.4 0.4
19/02:30am 7.9 4.4 3.4 73 1.9 NW 11 19 6 10 1021.6 1021.7 0.4
19/02:00am 8.1 4.2 3.6 73 1.9 NW 13 24 7 13 1021.8 1021.9 0.4
19/01:30am 7.9 4.5 3.8 75 1.8 NW 11 17 6 9 1022.0 1022.1 0.4
19/01:00am 7.7 4.3 3.9 77 1.6 NW 11 19 6 10 1022.2 1022.3 0.4
19/12:30am 8.0 4.7 4.6 79 1.5 WNW 11 19 6 10 1022.4 1022.5 0.4
19/12:00am 8.2 5.0 5.0 80 1.4 WNW 11 20 6 11 1022.6 1022.7 0.4
 
Date/Time
EST
Temp
°C
App
Temp
°C
Dew
Point
Rel
Hum
%
Delta-T
°C
Wind Press
QNH
hPa
Press
MSL
hPa
Rain
since 9 am
mm
Dir
 
Spd
km/h
Gust
km/h
Spd
kts
Gust
kts
18/11:30pm 8.0 5.2 5.1 82 1.3 WNW 9 15 5 8 1022.6 1022.7 0.4
18/11:00pm 8.5 5.0 5.4 81 1.4 WNW 13 19 7 10 1022.6 1022.7 0.4
18/10:30pm 8.8 5.3 5.5 80 1.5 WNW 13 20 7 11 1022.7 1022.8 0.4
18/10:00pm 8.9 6.2 5.5 79 1.5 WNW 9 17 5 9 1022.6 1022.7 0.4
18/09:30pm 9.1 6.0 5.5 78 1.6 WNW 11 19 6 10 1022.4 1022.5 0.4
18/09:00pm 9.0 5.9 5.6 79 1.5 W 11 17 6 9 1022.3 1022.4 0.4
18/08:30pm 8.6 5.4 5.2 79 1.5 WNW 11 17 6 9 1022.2 1022.3 0.4
18/08:00pm 8.9 6.6 5.6 80 1.5 WNW 7 13 4 7 1022.2 1022.3 0.4
18/07:30pm 9.4 7.3 6.5 82 1.4 NW 7 11 4 6 1021.8 1021.9 0.4
18/07:00pm 9.4 7.3 6.5 82 1.3 NW 7 11 4 6 1021.5 1021.5 0.4
18/06:30pm 8.5 6.3 6.0 84 1.1 NNW 7 11 4 6 1021.2 1021.2 0.4
18/06:00pm 9.2 7.1 6.5 83 1.3 NW 7 11 4 6 1021.1 1021.1 0.4
18/05:30pm 10.4 8.0 7.1 80 1.6 NW 9 13 5 7 1020.8 1020.8 0.4
18/05:00pm 10.8 8.6 7.9 82 1.4 W 9 17 5 9 1020.5 1020.5 0.4
18/04:30pm 10.7 8.0 7.4 80 1.6 W 11 19 6 10 1020.3 1020.3 0.2
18/04:00pm 11.1 8.5 7.6 79 1.7 W 11 22 6 12 1020.1 1020.1 0.2
18/03:30pm 9.8 6.0 7.4 85 1.1 W 17 26 9 14 1020.1 1020.1 0.2
18/03:17pm 11.0 3.4 6.0 71 2.3 WSW 35 44 19 24 1020.0 1020.0 0.0
18/03:00pm 12.5 9.0 5.4 62 3.3 W 13 24 7 13 1019.5 1019.5 0.0
18/02:30pm 12.6 9.2 6.0 64 3.1 WNW 13 17 7 9 1019.6 1019.6 0.0
18/02:00pm 12.7 7.9 4.7 58 3.7 W 19 26 10 14 1019.7 1019.7 0.0
18/01:30pm 11.8 6.7 4.1 59 3.5 W 20 28 11 15 1019.8 1019.8 0.0
18/01:07pm 11.6 5.1 4.8 63 3.1 WSW 28 48 15 26 1019.7 1019.7 0.0
18/01:00pm 14.2 9.2 3.7 49 4.8 WSW 19 30 10 16 1019.3 1019.3 0.0
18/12:30pm 12.4 7.4 4.4 58 3.6 WSW 20 30 11 16 1019.6 1019.6 0.0
18/12:00pm 14.0 8.7 5.1 55 4.2 WSW 22 32 12 17 1019.7 1019.7 0.0
18/11:30am 13.3 7.9 4.5 55 4.0 WSW 22 33 12 18 1019.7 1019.7 0.0
18/11:00am 12.8 7.5 4.8 58 3.7 WSW 22 32 12 17 1019.8 1019.8 0.0
18/10:30am 12.5 7.7 5.7 63 3.2 WSW 20 35 11 19 1019.8 1019.8 0.0
18/10:00am 12.0 7.0 4.7 61 3.3 W 20 32 11 17 1019.7 1019.7 0.0
18/09:30am 11.6 6.3 4.8 63 3.1 W 22 32 12 17 1019.6 1019.6 0.0
18/09:00am 10.4 5.0 4.3 66 2.7 W 22 32 12 17 1019.4 1019.4 0.2
18/08:30am 10.5 5.1 4.6 67 2.7 W 22 37 12 20 1019.2 1019.2 0.2
18/08:00am 9.8 4.8 4.4 69 2.4 W 20 33 11 18 1019.0 1019.0 0.2
18/07:30am 9.1 4.2 4.1 71 2.2 W 19 28 10 15 1018.9 1018.9 0.2
18/07:00am 8.4 3.8 3.8 73 2.0 W 17 28 9 15 1018.5 1018.5 0.2
18/06:30am 7.8 3.5 3.5 74 1.8 WNW 15 28 8 15 1018.1 1018.1 0.2
18/06:00am 7.9 3.3 3.6 74 1.8 W 17 32 9 17 1017.7 1017.7 0.2
18/05:30am 7.9 3.7 3.6 74 1.8 W 15 26 8 14 1017.3 1017.3 0.2
18/05:00am 8.3 3.1 3.4 71 2.1 W 20 35 11 19 1016.8 1016.8 0.2
18/04:30am 8.1 3.0 3.2 71 2.1 W 19 30 10 16 1016.4 1016.4 0.2
18/04:00am 8.3 2.6 3.0 69 2.3 W 22 35 12 19 1016.1 1016.1 0.2
18/03:30am 8.5 2.8 2.9 68 2.4 W 22 33 12 18 1015.9 1015.9 0.2
18/03:00am 8.4 3.1 3.1 69 2.3 W 20 30 11 16 1015.8 1015.8 0.2
18/02:30am 8.3 3.2 2.8 68 2.3 W 19 35 10 19 1015.6 1015.6 0.2
18/02:00am 8.1 3.6 2.4 67 2.4 W 15 24 8 13 1015.8 1015.8 0.2
18/01:30am 8.1 3.2 2.1 66 2.5 WNW 17 24 9 13 1015.9 1015.9 0.2
18/01:00am 7.9 3.0 2.2 67 2.4 WNW 17 26 9 14 1015.9 1015.9 0.2
18/12:30am 8.2 3.8 2.7 68 2.3 WNW 15 24 8 13 1016.1 1016.1 0.2
18/12:00am 7.9 3.1 2.8 70 2.1 WNW 17 28 9 15 1016.1 1016.1 0.2
 
Date/Time
EST
Temp
°C
App
Temp
°C
Dew
Point
Rel
Hum
%
Delta-T
°C
Wind Press
QNH
hPa
Press
MSL
hPa
Rain
since 9 am
mm
Dir
 
Spd
km/h
Gust
km/h
Spd
kts
Gust
kts
17/11:30pm 8.2 3.5 2.9 69 2.2 WNW 17 28 9 15 1016.0 1016.0 0.2
17/11:00pm 8.1 2.9 2.6 68 2.3 WNW 19 30 10 16 1016.0 1016.0 0.2
17/10:30pm 8.1 4.1 2.6 68 2.3 WNW 13 24 7 13 1016.0 1016.0 0.2
17/10:00pm 8.4 3.9 2.4 66 2.5 WNW 15 30 8 16 1016.0 1016.0 0.2
17/09:30pm 8.2 3.9 3.1 70 2.2 W 15 24 8 13 1016.0 1016.0 0.2
17/09:00pm 8.2 4.2 3.1 70 2.2 W 13 26 7 14 1015.9 1015.9 0.2
17/08:30pm 8.8 3.6 3.4 69 2.3 W 20 37 11 20 1015.6 1015.6 0.2
17/08:00pm 9.0 4.0 3.8 70 2.3 W 19 35 10 19 1015.4 1015.4 0.2
17/07:30pm 9.6 4.7 4.2 69 2.4 W 19 28 10 15 1014.8 1014.8 0.2
17/07:00pm 9.8 4.7 4.0 67 2.6 W 20 33 11 18 1014.3 1014.3 0.2
17/06:30pm 9.7 4.3 4.5 70 2.3 W 22 33 12 18 1013.8 1013.8 0.2
17/06:00pm 10.2 3.2 4.1 66 2.7 WSW 30 63 16 34 1013.3 1013.3 0.2
17/05:30pm 10.8 2.9 4.5 65 2.8 WSW 35 61 19 33 1012.6 1012.6 0.2
17/05:20pm 11.3 4.5 5.2 66 2.8 W 30 48 16 26 1012.4 1012.4 0.2
17/05:00pm 12.3 6.0 5.7 64 3.1 W 28 41 15 22 1011.8 1011.8 0.2
17/04:30pm 12.6 8.2 6.6 67 2.9 W 19 28 10 15 1011.1 1011.1 0.2
17/04:03pm 12.4 5.6 4.9 60 3.5 W 30 54 16 29 1010.8 1010.8 0.2
17/04:00pm 13.1 6.8 5.8 61 3.5 WSW 28 41 15 22 1010.7 1010.7 0.2
17/03:30pm 13.3 7.2 6.4 63 3.3 WSW 28 46 15 25 1010.2 1010.2 0.2
17/03:18pm 12.7 6.7 7.0 68 2.8 WSW 28 48 15 26 1009.9 1009.9 0.2
17/03:00pm 13.4 6.8 7.8 69 2.8 SW 32 48 17 26 1009.5 1009.5 0.2
17/02:34pm 13.4 7.5 7.4 67 2.9 SW 28 50 15 27 1009.4 1009.4 0.2
17/02:30pm 14.0 8.1 7.3 64 3.3 SW 28 39 15 21 1009.2 1009.2 0.2
17/02:00pm 13.4 8.6 8.9 74 2.3 SW 24 39 13 21 1009.3 1009.3 0.2
17/01:30pm 13.9 9.5 7.4 65 3.2 WSW 20 30 11 16 1009.1 1009.1 0.2
17/01:00pm 15.8 11.7 7.8 59 4.0 WSW 19 32 10 17 1009.1 1009.1 0.0
17/12:30pm 15.2 10.7 6.0 54 4.4 W 19 30 10 16 1009.2 1009.2 0.0

Other Formats:

Comma delimited format used in spreadsheet applications
http://www.bom.gov.au/fwo/IDV60801/IDV60801.95918.axf

JavaScript Object Notation format (JSON) in row-major order
http://www.bom.gov.au/fwo/IDV60801/IDV60801.95918.json